Data for 04/21/2005

Time Sea-Level Adjusted Pressure Absolute Pressure Temperature Relative Humidity Dew Point   
(mb) (inHg) (mb) (inHg) (C) (F) (%) (C) (F)
00:05 1022 30.18 851 25.13 -0.1 31.7 92 -1.3 29.6
00:10 1022 30.18 851 25.13 -0.1 31.7 91 -1.4 29.4
00:15 1022 30.18 851 25.13 -0 31.9 90 -1.5 29.3
00:20 1022 30.18 851 25.13 0 32.1 89 -1.5 29.3
00:25 1022 30.18 851 25.13 0.1 32.1 90 -1.5 29.4
00:30 1022 30.18 851 25.13 0 32.1 90 -1.5 29.3
00:35 1022 30.18 851 25.13 0 32.1 90 -1.4 29.4
00:40 1022 30.18 851 25.13 0.1 32.1 90 -1.5 29.4
00:45 1022 30.18 851 25.13 0 32 90 -1.5 29.3
00:50 1022 30.18 851 25.13 0 32 89 -1.5 29.3
00:55 1022 30.18 851 25.13 0.1 32.2 89 -1.5 29.3
01:00 1022 30.18 851 25.13 0 32.1 89 -1.5 29.3
01:05 1022 30.18 851 25.13 0.1 32.1 89 -1.5 29.2
01:10 1022 30.18 851 25.13 0.1 32.1 89 -1.6 29.1
01:15 1022 30.18 851 25.13 0.1 32.2 89 -1.5 29.2
01:20 1022 30.18 851 25.13 0.1 32.1 89 -1.5 29.2
01:25 1022 30.18 851 25.13 0.1 32.1 89 -1.5 29.2
01:30 1022 30.18 851 25.13 -0 32 89 -1.6 29
01:35 1022 30.18 851 25.13 0 32 88 -1.7 29
01:40 1022 30.18 851 25.13 0 32 88 -1.7 28.9
01:45 1022 30.18 851 25.13 0 32 88 -1.8 28.8
01:50 1022 30.18 851 25.13 0 32.1 87 -1.9 28.6
01:55 1022 30.18 851 25.13 0.2 32.3 85 -2.1 28.2
02:00 1022 30.18 851 25.13 0.3 32.6 83 -2.2 28
02:05 1022 30.18 851 25.13 0.3 32.6 84 -2.1 28.2
02:10 1022 30.18 851 25.13 0.2 32.4 85 -2 28.3
02:15 1022 30.18 851 25.13 0.1 32.2 86 -2 28.4
02:20 1022 30.18 851 25.13 -0.1 31.8 87 -2 28.4
02:25 1022 30.18 851 25.13 -0.3 31.4 88 -2 28.4
02:30 1022 30.18 851 25.13 -0.5 31.1 89 -2 28.4
02:35 1021 30.15 851 25.13 -0.6 30.9 89 -2.2 28.1
02:40 1021 30.15 851 25.13 -0.7 30.8 90 -2.2 28.1
02:45 1022 30.18 851 25.13 -0.7 30.8 90 -2.2 28
02:50 1021 30.15 851 25.13 -0.8 30.5 90 -2.2 28.1
02:55 1021 30.15 851 25.13 -0.9 30.3 91 -2.3 27.9
03:00 1021 30.15 851 25.13 -0.9 30.5 90 -2.3 27.9
03:05 1021 30.15 851 25.13 -1 30.3 91 -2.3 27.9
03:10 1021 30.15 851 25.13 -1.1 30 91 -2.4 27.8
03:15 1021 30.15 851 25.13 -1.1 30 91 -2.4 27.7
03:20 1021 30.15 851 25.13 -1 30.1 91 -2.4 27.7
03:25 1021 30.15 851 25.13 -0.9 30.3 90 -2.4 27.7
03:30 1021 30.15 851 25.13 -1 30.2 90 -2.4 27.7
03:35 1022 30.18 851 25.13 -0.9 30.4 90 -2.3 27.8
03:40 1022 30.18 851 25.13 -1 30.3 90 -2.4 27.6
03:45 1022 30.18 851 25.13 -1.1 29.9 90 -2.6 27.3
03:50 1021 30.15 851 25.13 -1.3 29.7 91 -2.6 27.3
03:55 1021 30.15 851 25.13 -1.4 29.5 91 -2.6 27.3
04:00 1021 30.15 851 25.13 -1.4 29.5 90 -2.8 27
04:05 1022 30.18 851 25.13 -1.4 29.4 91 -2.8 27
04:10 1022 30.18 851 25.13 -1.5 29.4 90 -2.8 26.9
04:15 1022 30.18 851 25.13 -1.5 29.2 91 -2.8 26.9
04:20 1022 30.18 851 25.13 -1.6 29.1 91 -2.9 26.9
04:25 1021 30.15 851 25.13 -1.7 28.9 92 -2.9 26.8
04:30 1021 30.15 851 25.13 -1.7 28.9 92 -2.9 26.9
04:35 1021 30.15 851 25.13 -1.7 28.9 92 -2.9 26.8
04:40 1021 30.15 851 25.13 -1.7 28.9 91 -2.9 26.7
04:45 1021 30.15 851 25.13 -1.6 29.1 91 -2.9 26.8
04:50 1021 30.15 851 25.13 -1.8 28.7 92 -2.9 26.7
04:55 1022 30.18 851 25.13 -1.8 28.8 92 -2.9 26.8
05:00 1022 30.18 851 25.13 -1.8 28.7 92 -2.9 26.7
05:05 1022 30.18 851 25.13 -1.8 28.7 92 -3 26.7
05:10 1022 30.18 851 25.13 -1.8 28.8 92 -3 26.7
05:15 1022 30.18 851 25.13 -1.7 28.9 91 -3 26.6
05:20 1022 30.18 851 25.13 -1.7 28.9 91 -3 26.6
05:25 1022 30.18 851 25.13 -1.9 28.7 91 -3.1 26.4
05:30 1022 30.18 851 25.13 -2 28.4 92 -3.2 26.3
05:35 1022 30.18 851 25.13 -2 28.3 91 -3.3 26.1
05:40 1022 30.18 851 25.13 -2 28.5 91 -3.3 26.1
05:45 1022 30.18 851 25.13 -1.9 28.6 91 -3.2 26.2
05:50 1022 30.18 851 25.13 -1.9 28.6 91 -3.2 26.2
05:55 1022 30.18 851 25.13 -1.9 28.6 91 -3.2 26.2
06:00 1022 30.18 851 25.13 -1.8 28.8 90 -3.2 26.2
06:05 1022 30.18 851 25.13 -1.6 29.2 89 -3.1 26.4
06:10 1022 30.18 851 25.13 -1.6 29.2 89 -3.1 26.4
06:15 1022 30.18 852 25.16 -1.5 29.3 89 -3.1 26.4
06:20 1022 30.18 852 25.16 -1.5 29.3 89 -3.1 26.5
06:25 1022 30.18 852 25.16 -1.4 29.5 88 -3.2 26.3
06:30 1022 30.18 852 25.16 -1.4 29.4 89 -3 26.6
06:35 1022 30.18 852 25.16 -1.5 29.3 89 -3.1 26.3
06:40 1023 30.21 852 25.16 -1.4 29.4 88 -3.2 26.2
06:45 1023 30.21 852 25.16 -1.3 29.6 87 -3.1 26.3
06:50 1023 30.21 852 25.16 -1.3 29.6 88 -3.1 26.4
06:55 1023 30.21 852 25.16 -1.2 29.8 88 -3 26.6
07:00 1023 30.21 852 25.16 -1.1 29.9 88 -3 26.7
07:05 1023 30.21 852 25.16 -1.1 30 88 -2.9 26.7
07:10 1023 30.21 852 25.16 -1.1 30 87 -3.1 26.4
07:15 1023 30.21 852 25.16 -1 30.3 86 -3 26.7
07:20 1023 30.21 852 25.16 -0.8 30.5 86 -2.9 26.7
07:25 1023 30.21 852 25.16 -0.8 30.6 86 -2.9 26.8
07:30 1023 30.21 852 25.16 -0.7 30.8 85 -2.8 26.9
07:35 1023 30.21 852 25.16 -0.6 30.9 85 -2.8 27
07:40 1023 30.21 852 25.16 -0.6 31 85 -2.7 27.1
07:45 1023 30.21 852 25.16 -0.5 31.1 86 -2.6 27.3
07:50 1023 30.21 853 25.19 -0.4 31.3 85 -2.6 27.3
07:55 1023 30.21 853 25.19 -0.1 31.8 85 -2.4 27.6
08:00 1023 30.21 853 25.19 0 32 84 -2.5 27.6
08:05 1023 30.21 853 25.19 0.1 32.2 83 -2.5 27.5
08:10 1024 30.24 853 25.19 0.2 32.4 82 -2.5 27.5
08:15 1024 30.24 853 25.19 0.2 32.4 82 -2.5 27.6
08:20 1024 30.24 853 25.19 0.3 32.6 83 -2.3 27.9
08:25 1024 30.24 853 25.19 0.3 32.5 83 -2.2 28
08:30 1024 30.24 853 25.19 0.3 32.5 83 -2.2 28.1
08:35 1024 30.24 853 25.19 0.3 32.5 84 -2.2 28.1
08:40 1024 30.24 853 25.19 0.3 32.6 84 -2.1 28.2
08:45 1024 30.24 853 25.19 0.5 32.9 84 -2 28.5
08:50 1024 30.24 853 25.19 0.5 32.9 83 -2 28.4
08:55 1024 30.24 853 25.19 0.8 33.4 81 -2.1 28.2
09:00 1024 30.24 853 25.19 1 33.9 81 -1.8 28.8
09:05 1024 30.24 853 25.19 1.2 34.1 81 -1.7 28.9
09:10 1024 30.24 853 25.19 0.7 33.3 82 -2 28.4
09:15 1024 30.24 853 25.19 0.7 33.2 82 -2 28.4
09:20 1024 30.24 853 25.19 0.6 33.1 83 -2 28.4
09:25 1024 30.24 853 25.19 0.6 33.1 83 -1.9 28.6
09:30 1024 30.24 853 25.19 1 33.8 82 -1.7 28.9
09:35 1024 30.24 853 25.19 1 33.8 83 -1.5 29.4
09:40 1024 30.24 853 25.19 1.1 33.9 84 -1.3 29.7
09:45 1024 30.24 853 25.19 1 33.7 85 -1.3 29.7
09:50 1024 30.24 853 25.19 0.9 33.6 86 -1.2 29.8
09:55 1024 30.24 853 25.19 1.1 34 85 -1.2 29.8
10:00 1024 30.24 853 25.19 1.2 34.1 85 -1.1 30
10:05 1024 30.24 853 25.19 1 33.8 87 -1 30.3
10:10 1024 30.24 854 25.22 1.6 34.9 81 -1.3 29.6
10:15 1024 30.24 854 25.22 1.7 35 82 -1.1 30
10:20 1024 30.24 854 25.22 1.8 35.2 83 -0.9 30.5
10:25 1024 30.24 854 25.22 2.1 35.7 81 -0.9 30.4
10:30 1025 30.27 854 25.22 2.3 36.1 81 -0.7 30.8
10:35 1025 30.27 854 25.22 2.2 36 82 -0.5 31.1
10:40 1025 30.27 854 25.22 2 35.7 82 -0.7 30.7
10:45 1025 30.27 854 25.22 2.5 36.5 79 -0.7 30.7
10:50 1025 30.27 854 25.22 2.8 37 80 -0.4 31.3
10:55 1025 30.27 854 25.22 2.8 37 79 -0.4 31.2
11:00 1025 30.27 854 25.22 2.9 37.2 79 -0.5 31.2
11:05 1025 30.27 854 25.22 3.1 37.6 78 -0.5 31.2
11:10 1025 30.27 854 25.22 3.1 37.5 78 -0.4 31.2
11:15 1025 30.27 854 25.22 3.1 37.5 77 -0.6 31
11:20 1025 30.27 854 25.22 3.1 37.6 76 -0.8 30.6
11:25 1025 30.27 854 25.22 2.4 36.3 82 -0.4 31.4
11:30 1025 30.27 854 25.22 2.6 36.6 79 -0.7 30.8
11:35 1025 30.27 855 25.25 2.8 37.1 79 -0.5 31.2
11:40 1025 30.27 855 25.25 3.1 37.6 78 -0.4 31.2
11:45 1026 30.3 855 25.25 2.8 37.1 81 -0.1 31.8
11:50 1026 30.3 855 25.25 2.2 36 82 -0.6 30.9
11:55 1026 30.3 855 25.25 2.7 36.9 79 -0.5 31.1
12:00 1026 30.3 855 25.25 2.6 36.6 83 -0.1 31.8
12:05 1026 30.3 855 25.25 2.7 36.8 80 -0.4 31.3
12:10 1026 30.3 855 25.25 3.1 37.5 79 -0.3 31.5
12:15 1026 30.3 855 25.25 3.4 38 80 0.3 32.6
12:20 1026 30.3 855 25.25 3.2 37.7 78 -0.3 31.4
12:25 1026 30.3 855 25.25 3 37.4 81 0 32
12:30 1026 30.3 855 25.25 3.1 37.6 81 0.1 32.2
12:35 1026 30.3 855 25.25 3.6 38.5 76 -0.3 31.5
12:40 1026 30.3 855 25.25 3.8 38.9 74 -0.4 31.3
12:45 1026 30.3 855 25.25 3.8 38.8 76 -0.1 31.9
12:50 1026 30.3 855 25.25 3.9 38.9 75 -0.2 31.7
12:55 1026 30.3 855 25.25 3.6 38.5 78 0.1 32.2
13:00 1026 30.3 855 25.25 3.5 38.2 80 0.4 32.7
13:05 1026 30.3 855 25.25 3.6 38.5 78 0.2 32.4
13:10 1026 30.3 855 25.25 3.8 38.8 78 0.4 32.6
13:15 1026 30.3 855 25.25 3.9 38.9 78 0.4 32.7
13:20 1026 30.3 855 25.25 4.2 39.6 76 0.4 32.7
13:25 1026 30.3 855 25.25 4 39.1 77 0.3 32.5
13:30 1026 30.3 855 25.25 3.8 38.9 80 0.7 33.2
13:35 1026 30.3 855 25.25 3.8 38.8 79 0.5 32.9
13:40 1026 30.3 855 25.25 3.7 38.7 80 0.6 33.1
13:45 1026 30.3 855 25.25 3.4 38.2 81 0.5 33
13:50 1026 30.3 855 25.25 3.3 37.9 83 0.7 33.3
13:55 1026 30.3 855 25.25 3.4 38.1 81 0.4 32.7
14:00 1026 30.3 855 25.25 3.8 38.8 78 0.3 32.6
14:05 1026 30.3 855 25.25 4 39.2 79 0.6 33.2
14:10 1026 30.3 855 25.25 3.8 38.9 79 0.5 33
14:15 1026 30.3 855 25.25 3.5 38.3 80 0.4 32.8
14:20 1026 30.3 855 25.25 3.5 38.3 81 0.6 33.1
14:25 1026 30.3 855 25.25 3.6 38.5 81 0.6 33.1
14:30 1026 30.3 855 25.25 3.8 38.8 81 0.9 33.6
14:35 1026 30.3 855 25.25 3.5 38.3 82 0.7 33.2
14:40 1026 30.3 855 25.25 3.4 38.1 82 0.5 33
14:45 1026 30.3 855 25.25 3.3 38 82 0.5 32.9
14:50 1026 30.3 855 25.25 3.3 37.9 82 0.4 32.8
14:55 1026 30.3 856 25.28 3.2 37.7 84 0.8 33.4
15:00 1026 30.3 856 25.28 3.4 38.1 85 1.1 34
15:05 1026 30.3 856 25.28 3.3 37.9 84 0.8 33.4
15:10 1026 30.3 856 25.28 3.1 37.6 84 0.7 33.2
15:15 1026 30.3 856 25.28 3.2 37.8 84 0.8 33.4
15:20 1026 30.3 856 25.28 2.9 37.2 87 1 33.8
15:25 1027 30.33 856 25.28 2.5 36.6 87 0.6 33
15:30 1026 30.3 856 25.28 2.4 36.3 87 0.5 32.8
15:35 1027 30.33 856 25.28 2.4 36.4 89 0.8 33.4
15:40 1027 30.33 856 25.28 2.4 36.4 88 0.7 33.2
15:45 1027 30.33 856 25.28 2.2 35.9 89 0.6 33.1
15:50 1027 30.33 856 25.28 2.2 36 90 0.7 33.3
15:55 1027 30.33 856 25.28 2.3 36.2 90 0.8 33.4
16:00 1027 30.33 856 25.28 2.1 35.8 91 0.8 33.5
16:05 1027 30.33 856 25.28 2 35.6 91 0.7 33.3
16:10 1027 30.33 856 25.28 2.1 35.8 91 0.8 33.5
16:15 1027 30.33 856 25.28 2 35.6 92 0.8 33.4
16:20 1027 30.33 856 25.28 1.7 35 93 0.7 33.3
16:25 1027 30.33 856 25.28 1.7 35.1 94 0.8 33.5
16:30 1027 30.33 856 25.28 2 35.6 92 0.8 33.4
16:35 1027 30.33 856 25.28 2.1 35.8 92 1 33.7
16:40 1027 30.33 856 25.28 2.4 36.3 92 1.2 34.2
16:45 1027 30.33 856 25.28 2.8 37 90 1.3 34.3
16:50 1027 30.33 856 25.28 2.6 36.7 91 1.3 34.3
16:55 1027 30.33 856 25.28 2.5 36.4 93 1.4 34.5
17:00 1027 30.33 856 25.28 2.9 37.1 88 1.1 34
17:05 1027 30.33 856 25.28 2.9 37.1 90 1.4 34.4
17:10 1027 30.33 856 25.28 2.7 36.9 90 1.3 34.4
17:15 1027 30.33 856 25.28 2.8 37.1 90 1.4 34.5
17:20 1027 30.33 856 25.28 3.2 37.7 88 1.4 34.6
17:25 1027 30.33 856 25.28 3.4 38.2 88 1.6 35
17:30 1027 30.33 856 25.28 3.9 39 84 1.4 34.5
17:35 1027 30.33 856 25.28 3.7 38.7 85 1.5 34.7
17:40 1027 30.33 856 25.28 3.8 38.9 86 1.7 35.1
17:45 1027 30.33 857 25.31 3.8 38.8 86 1.6 34.9
17:50 1027 30.33 857 25.31 3.7 38.6 88 1.8 35.3
17:55 1027 30.33 857 25.31 3.7 38.7 87 1.8 35.3
18:00 1027 30.33 857 25.31 3.9 39.1 85 1.7 35
18:05 1027 30.33 857 25.31 3.8 38.9 87 1.8 35.3
18:10 1028 30.36 857 25.31 3.8 38.9 87 1.9 35.3
18:15 1028 30.36 857 25.31 3.9 39 85 1.5 34.7
18:20 1028 30.36 857 25.31 3.7 38.6 88 1.8 35.3
18:25 1028 30.36 857 25.31 3.7 38.6 88 1.8 35.3
18:30 1028 30.36 857 25.31 3.4 38.2 88 1.6 34.9
18:35 1028 30.36 857 25.31 3.5 38.2 87 1.5 34.7
18:40 1028 30.36 857 25.31 3.4 38.1 87 1.4 34.5
18:45 1028 30.36 857 25.31 3.3 38 86 1.3 34.3
18:50 1028 30.36 857 25.31 3.3 38 89 1.7 35
18:55 1028 30.36 857 25.31 3.3 38 87 1.4 34.5
19:00 1028 30.36 857 25.31 3.2 37.8 88 1.4 34.6
19:05 1028 30.36 857 25.31 3.3 37.9 88 1.5 34.7
19:10 1028 30.36 857 25.31 3.3 37.9 88 1.5 34.6
19:15 1028 30.36 857 25.31 3.2 37.8 89 1.6 35
19:20 1028 30.36 857 25.31 3.4 38.1 88 1.6 34.8
19:25 1028 30.36 857 25.31 3.2 37.7 89 1.6 34.9
19:30 1028 30.36 857 25.31 3.1 37.5 90 1.6 34.9
19:35 1028 30.36 857 25.31 3.1 37.5 90 1.6 34.9
19:40 1028 30.36 857 25.31 3.1 37.6 89 1.5 34.8
19:45 1028 30.36 857 25.31 2.9 37.3 92 1.7 35.1
19:50 1028 30.36 857 25.31 2.9 37.1 92 1.6 34.9
19:55 1028 30.36 857 25.31 2.8 37.1 92 1.6 34.9
20:00 1028 30.36 857 25.31 2.8 37 91 1.4 34.6
20:05 1028 30.36 857 25.31 2.8 37 92 1.6 34.9
20:10 1028 30.36 857 25.31 2.7 36.9 93 1.6 35
20:15 1028 30.36 857 25.31 2.7 36.8 92 1.5 34.7
20:20 1028 30.36 857 25.31 2.7 36.8 92 1.5 34.7
20:25 1028 30.36 857 25.31 2.6 36.7 91 1.4 34.4
20:30 1028 30.36 857 25.31 2.5 36.5 93 1.5 34.6
20:35 1028 30.36 857 25.31 2.6 36.7 93 1.6 34.9
20:40 1028 30.36 857 25.31 2.6 36.7 93 1.5 34.7
20:45 1028 30.36 857 25.31 2.5 36.5 93 1.5 34.7
20:50 1028 30.36 857 25.31 2.5 36.4 94 1.6 34.9
20:55 1028 30.36 857 25.31 2.4 36.4 95 1.7 35.1
21:00 1028 30.36 857 25.31 2.5 36.5 94 1.7 35
21:05 1028 30.36 857 25.31 2.5 36.4 95 1.7 35
21:10 1028 30.36 857 25.31 2.4 36.3 94 1.5 34.8
21:15 1028 30.36 857 25.31 2.3 36.1 94 1.5 34.6
21:20 1028 30.36 857 25.31 2.2 36 94 1.4 34.4
21:25 1028 30.36 858 25.34 2.3 36.1 94 1.3 34.4
21:30 1028 30.36 858 25.34 2.2 36 94 1.3 34.4
21:35 1028 30.36 858 25.34 2.3 36.1 94 1.3 34.4
21:40 1028 30.36 858 25.34 2.3 36.1 94 1.4 34.6
21:45 1029 30.39 858 25.34 2.2 36 94 1.4 34.6
21:50 1029 30.39 858 25.34 2.2 36 94 1.4 34.5
21:55 1029 30.39 858 25.34 2.2 36 94 1.3 34.4
22:00 1029 30.39 858 25.34 2.2 36 93 1.2 34.2
22:05 1029 30.39 858 25.34 2.3 36.1 91 0.9 33.7
22:10 1029 30.39 858 25.34 2.4 36.2 91 1.1 34
22:15 1029 30.39 858 25.34 2.3 36.2 91 1.1 33.9
22:20 1029 30.39 858 25.34 2.3 36.2 91 1.1 33.9
22:25 1029 30.39 858 25.34 2.3 36.2 91 1 33.9
22:30 1029 30.39 858 25.34 2.3 36.2 90 0.9 33.6
22:35 1029 30.39 858 25.34 2.3 36.2 91 1 33.8
22:40 1029 30.39 858 25.34 2.4 36.3 90 0.9 33.6
22:45 1028 30.36 858 25.34 2.3 36.2 90 0.9 33.6
22:50 1028 30.36 858 25.34 2.4 36.3 90 0.9 33.6
22:55 1028 30.36 858 25.34 2.4 36.4 90 1 33.8
23:00 1028 30.36 858 25.34 2.3 36.2 91 1.1 33.9
23:05 1028 30.36 858 25.34 2.3 36.1 92 1 33.8
23:10 1028 30.36 858 25.34 2.4 36.3 93 1.3 34.3
23:15 1028 30.36 858 25.34 2.4 36.4 91 1.1 33.9
23:20 1028 30.36 858 25.34 2.4 36.3 90 0.9 33.7
23:25 1028 30.36 858 25.34 2.2 35.9 92 0.9 33.7
23:30 1028 30.36 858 25.34 2.1 35.8 93 1 33.9
23:35 1028 30.36 858 25.34 2.2 35.9 92 1 33.7
23:40 1028 30.36 858 25.34 2.2 36 91 0.8 33.5
23:45 1028 30.36 858 25.34 2.2 35.9 91 0.9 33.5
23:50 1028 30.36 858 25.34 2 35.6 91 0.8 33.4
23:55 1028 30.36 858 25.34 2 35.5 92 0.7 33.3
24:00 1028 30.36 858 25.34 2 35.6 91 0.7 33.2